Weather observations for the past three days for
Tucson Ryan Field Airport
Metric (Imperial)
Date Time (mst) Wind (kph) Vis. (km) Weather Sky Cond. Temperature (ºC) Relative Humidity Wind Chill (°C) Heat Index (°C) Pressure Precipitation (cm)
Air Dwpt 6 hour altimeter (cm) sea level (mb) 1 hr 3 hr 6 hr
Max. Min.
06 08:45 Calm 16.09 Fair CLR 28 16 48% 28 76.1 0.0
06 07:45 Calm 16.09 Fair CLR 25 16 57% 26 76.12 0.0
06 06:45 Calm 16.09 Fair CLR 24 15 57% 25 76.07 0.0
06 05:51 S 6 16.09 Fair CLR 26 14 48% 26 76.07 0.0
05 19:45 W 7 16.09 Fair CLR 31 15 38% 31 76 0.0
05 18:45 NW 11 16.09 Fair CLR 33 14 32% 32 75.97 0.0
05 17:45 NW 19 16.09 Fair CLR 35 13 26% 34 75.95 0.0
05 16:45 NW 19 16.09 Fair CLR 36 14 27% 35 75.95 0.0
05 15:45 NW 15 16.09 Fair CLR 36 14 27% 35 75.97 0.0
05 14:45 W 13 G 24 16.09 Fair CLR 36 15 28% 36 76.02 0.0
05 13:45 NW 15 16.09 Fair CLR 36 14 27% 35 76.07 0.0
05 12:45 W 9 16.09 Fair CLR 35 14 28% 34 76.15 0.0
05 10:45 W 11 16.09 Fair CLR 33 16 36% 33 76.25 0.0
05 09:45 SW 13 16.09 Fair CLR 32 16 38% 32 76.25 0.0
05 08:45 Calm 16.09 Fair CLR 30 18 49% 31 76.25 0.0
05 07:45 Calm 16.09 Fair CLR 27 19 62% 28 76.25 0.0
05 06:45 E 6 16.09 Fair CLR 25 20 74% 26 76.2 0.0
05 05:45 Calm 16.09 Fair CLR 23 20 83% 76.15 0.0
04 19:45 S 6 16.09 Fair CLR 31 16 40% 31 76.02 0.0
04 18:45 SW 9 16.09 Fair CLR 33 15 34% 33 75.97 0.0
04 17:45 SW 9 16.09 Fair CLR 35 14 28% 34 75.97 0.0
04 16:45 SW 11 16.09 Fair CLR 36 15 28% 36 75.95 0.0
04 15:45 SW 17 16.09 Fair CLR 36 14 27% 35 75.97 0.0
04 14:45 SW 7 16.09 Fair CLR 36 13 25% 35 76.02 0.0
04 13:45 S 6 G 22 16.09 Fair CLR 36 15 28% 36 76.05 0.0
04 12:45 W 9 16.09 Fair CLR 35 16 32% 35 76.12 0.0
04 11:45 Calm 16.09 Fair CLR 34 18 39% 35 76.17 0.0
04 10:45 Calm 16.09 Fair CLR 32 28 79% 44 76.23 0.0
04 09:45 Calm 16.09 Fair CLR 30 20 55% 32 76.25 0.0
04 08:45 Calm 16.09 Fair CLR 29 21 62% 31 76.23 0.0
04 07:45 W 6 16.09 Fair CLR 27 21 70% 29 76.2 0.0
04 06:45 Calm 16.09 Fair CLR 25 21 79% 26 76.17 0.0
04 05:45 E 7 16.09 Fair CLR 24 21 83% 24 76.1 0.0
03 19:45 SW 7 16.09 A Few Clouds FEW085 30 18 49% 31 76 0.0
03 18:45 S 13 16.09 Fair CLR 31 17 43% 31 75.95 0.0
03 17:45 S 15 16.09 Fair CLR 32 18 43% 33 75.92 0.0
03 16:45 S 26 16.09 Fair CLR 33 18 41% 34 75.92 0.0
03 15:45 E 15 G 28 16.09 Fair CLR 33 19 44% 35 75.95 0.0
03 14:45 Calm 16.09 Fair CLR 33 19 44% 35 75.97 0.0
03 13:45 Calm 16.09 Fair CLR 32 19 46% 33 76.02 0.0
03 12:45 Calm 16.09 Fair CLR 33 17 38% 33 76.1 0.0
03 11:45 W 7 11.27 Fair CLR 32 18 43% 33 76.17 0.0
03 10:45 NE 7 11.27 Fair CLR 30 18 49% 31 76.23 0.0
03 09:45 E 9 11.27 Fair CLR 29 19 55% 30 76.23 0.0
Date Time (mst) Wind (kph) Vis. (km) Weather Sky Cond. Air Dwpt Max. Min. Relative Humidity Wind Chill (°C) Heat Index (°C) altimeter (cm) sea level (mb) 1 hr 3 hr 6 hr
6 hour
Temperature (ºC) Pressure Precipitation (cm)